Briefing drone pour Portes-les-valence

Rechercher une autre localisation

Conditions de vol :


Nous sommes le : Dimanche 22 mai 2022
Il est 22:34 UTC (00:34 LT)

Lever de soleil : 03:38 UTC (05:38 LT)
Coucher de soleil : 19:35 UTC (21:35 LT)

Météo

L'essentiel des conditions de vol

VIGILANCE MÉTÉO FRANCE - Drôme (26)
Vigilance Jaune : Orages
CARTE TEMSI
CARTES DES FRONTS
METAR de LFLU
LFLU 211800Z AUTO 20004KT CAVOK 29/17 Q1015

Date d'émission: 21/05/2022
Heure d'émission: 18:00 UTC
Vent: 200° pour 4 KT (7 km/h)
Visibilité horizontale: > 10 km
Plafond : Plafond et visibilité OK (CAVOK)
Température: 29 °C
Point de rosée: 17 °C
Humidité: 48%
Pression (QNH): 1015 hPa
Prévision 24h pour Valence (5 km)
Vent : 40° pour 4 KT (16 km/h)
Temperature Maxi: 20 °C
Temperature Min: 20 °C
Humidité : 74%
Condition : Couvert



Warning: count(): Parameter must be an array or an object that implements Countable in /homepages/6/d509196549/htdocs/droneoxygene/briefing.php on line 743
WEBCAM POUR PORTES-LES-VALENCE

Réglementation

Voler en sécurité

CARTES AERONAUTIQUE 1/500.000
CARTES VAC (LFLU)
SUP AIP




Chargement des AIP...
NOTAM (PORTES-LES-VALENCE + Terrain à proximité / FIR )




Chargement des NOTAMS...
CONTACT PREFECTURE 26
Drôme (26) : ddt-satem@drome.gouv.fr


Avertissement : Les données mises à disposition sont indicatives. Oxygène Drone ne pourra être tenu responsable de dégâts causés aux biens et aux personnes.